Weather at Brønnøysund Airport, Brønnøy

Public forecast

Using degrees Celsius for public forecast. Weather courtesy of forecast.io.

Current aviation weather report (METAR) for Brønnøysund Airport, Brønnøy

Report is more than 6 hours old.

2022/11/14 15:20 (retrieved 2 years ago)

ENBN 141520Z 02004KT 330V040 9999 FEW015 SCT050 06/05 Q1022

Closest aviation forecast (TAF) to Brønnøysund Airport, Brønnøy

Forecast is more than 12 hours old.

Closest forecast is Bodø Airport, 120.2 nm (222.7 km) NNE.

2023/02/22 18:36 (retrieved 1 year ago)

TAF ENBO 221700Z 2218/2318 09025KT 9999 BKN020 TEMPO 2218/2220 2000 SN VV012 TEMPO 2219/2224 18009KT PROB40 2220/2301 3000 DZRA BR BKN004 BECMG 2223/2302 23022KT FEW020CB SCT025 TEMPO 2223/2318 23028G40KT 2000 SHSNRA VV008